Terminal Aerodrome Forecast
Issued by NWS

Current Version | Previous Version | Text Only | Print | Product List | Glossary On
Versions: 1 2 3 4 5 6 7 8 9 10 11 12 13 14
000
FTUS43 KDTX 291120
TAFPTK
TAF
KPTK 291120Z 2912/3012 22012G18KT P6SM -SHRA SCT070 OVC100
      WS015/24045KT
     FM291300 23013G23KT P6SM SCT040 OVC100
     FM291700 24017G27KT P6SM BKN045
     FM300100 21012KT P6SM SCT040 BKN060 PROB30 3003/3007 2SM TSRA
      OVC035CB
     FM300700 20006KT 6SM -SHRA BR SCT030 BKN040 OVC060=

USA.gov is the U.S. government's official web portal to all federal, state and local government web resources and services.